Time;durP1;ratioP1;P1;durP2;ratioP2;P2;SDS_P1;SDS_P2;PMS_P1;PMS_P2;Temp;Humidity;BMP_temperature;BMP_pressure;BME280_temperature;BME280_humidity;BME280_pressure;Samples;Min_cycle;Max_cycle;Signal;HPM_P1;HPM_P2
2022/01/31 00:00:17;;;;;;;33.40;7.57;;;4.60;99.90;;;;;;5042856;28;20210;-67
2022/01/31 00:02:47;;;;;;;21.80;5.60;;;4.60;99.90;;;;;;5042650;28;20206;-66
2022/01/31 00:05:17;;;;;;;37.95;6.18;;;4.60;99.90;;;;;;5042870;28;20847;-67
2022/01/31 00:07:44;;;;;;;25.08;6.07;;;4.60;99.90;;;;;;5042683;28;20237;-67
2022/01/31 00:10:14;;;;;;;26.13;5.43;;;4.70;99.90;;;;;;5040660;28;20208;-67
2022/01/31 00:12:53;;;;;;;36.08;6.35;;;4.70;99.90;;;;;;5041376;28;20197;-67
2022/01/31 00:15:22;;;;;;;36.80;7.35;;;4.70;99.90;;;;;;5040924;28;20295;-69
2022/01/31 00:17:50;;;;;;;28.67;6.68;;;4.70;99.90;;;;;;5041487;28;20267;-69
2022/01/31 00:20:17;;;;;;;16.55;5.40;;;4.70;99.90;;;;;;5041628;28;20194;-69
2022/01/31 00:22:45;;;;;;;20.02;6.63;;;4.60;99.90;;;;;;5040891;28;20293;-69
2022/01/31 00:25:14;;;;;;;18.83;6.20;;;4.60;99.90;;;;;;5041291;28;20205;-69
2022/01/31 00:27:41;;;;;;;25.63;5.97;;;4.60;99.90;;;;;;5041483;28;20247;-69
2022/01/31 00:30:10;;;;;;;18.45;5.18;;;4.60;99.90;;;;;;5041164;28;20260;-70
2022/01/31 00:32:39;;;;;;;25.25;6.10;;;4.60;99.90;;;;;;5041198;28;20205;-69
2022/01/31 00:35:09;;;;;;;23.08;5.93;;;4.50;99.90;;;;;;5040058;28;20201;-69
2022/01/31 00:37:37;;;;;;;33.20;7.82;;;4.50;99.90;;;;;;5040899;28;20229;-69
2022/01/31 00:40:08;;;;;;;32.05;8.40;;;4.40;99.90;;;;;;5040945;28;20202;-69
2022/01/31 00:42:36;;;;;;;25.50;5.75;;;4.30;99.90;;;;;;5041001;28;20208;-69
2022/01/31 00:45:12;;;;;;;19.30;4.55;;;4.40;99.90;;;;;;5040048;28;20240;-67
2022/01/31 00:47:46;;;;;;;19.10;4.63;;;4.40;99.90;;;;;;5040751;28;20308;-69
2022/01/31 00:50:17;;;;;;;26.40;5.30;;;4.30;99.90;;;;;;5040779;28;20735;-68
2022/01/31 00:52:46;;;;;;;21.33;6.72;;;4.40;99.90;;;;;;5040315;28;20278;-67
2022/01/31 00:55:15;;;;;;;19.30;6.22;;;4.40;99.90;;;;;;5040299;28;20202;-69
2022/01/31 00:57:43;;;;;;;29.23;6.57;;;4.40;99.90;;;;;;5040001;28;20376;-68
2022/01/31 01:00:13;;;;;;;27.92;6.60;;;4.30;99.90;;;;;;5040291;28;20697;-69
2022/01/31 01:02:42;;;;;;;31.08;7.30;;;4.30;99.90;;;;;;5040535;28;20202;-69
2022/01/31 01:05:10;;;;;;;21.83;6.20;;;4.30;99.90;;;;;;5039537;28;20835;-68
2022/01/31 01:07:38;;;;;;;35.15;6.63;;;4.20;99.90;;;;;;5040293;28;20256;-69
2022/01/31 01:10:07;;;;;;;22.27;6.85;;;4.20;99.90;;;;;;5039506;28;20198;-69
2022/01/31 01:12:35;;;;;;;14.48;7.13;;;4.20;99.90;;;;;;5039958;28;20201;-67
2022/01/31 01:15:03;;;;;;;28.35;7.80;;;4.20;99.90;;;;;;5039470;28;20205;-69
2022/01/31 01:17:31;;;;;;;26.05;7.50;;;4.20;99.90;;;;;;5040061;28;20791;-68
2022/01/31 01:20:00;;;;;;;26.67;6.00;;;4.20;99.90;;;;;;5038631;28;20829;-69
2022/01/31 01:22:28;;;;;;;25.83;9.45;;;4.30;99.90;;;;;;5039461;28;20198;-68
2022/01/31 01:24:56;;;;;;;17.73;5.72;;;4.20;99.90;;;;;;5038917;28;20205;-69
2022/01/31 01:27:28;;;;;;;30.08;6.53;;;4.30;99.90;;;;;;5039373;28;20229;-69
2022/01/31 01:29:56;;;;;;;20.52;6.65;;;4.30;99.90;;;;;;5039029;28;20212;-68
2022/01/31 01:32:27;;;;;;;25.30;6.15;;;4.30;99.90;;;;;;5039275;28;20715;-67
2022/01/31 01:34:59;;;;;;;21.75;6.22;;;4.30;99.90;;;;;;5039327;28;20197;-68
2022/01/31 01:37:28;;;;;;;19.20;4.93;;;4.40;99.90;;;;;;5039473;28;20879;-69
2022/01/31 01:39:56;;;;;;;22.80;4.78;;;4.40;99.90;;;;;;5038911;28;20205;-69
2022/01/31 01:42:24;;;;;;;23.90;5.75;;;4.40;99.90;;;;;;5040832;28;20209;-68
2022/01/31 01:44:52;;;;;;;21.35;5.78;;;4.30;99.90;;;;;;5042221;28;20719;-69
2022/01/31 01:47:21;;;;;;;25.63;6.78;;;4.30;99.90;;;;;;5043707;28;20226;-70
2022/01/31 01:49:50;;;;;;;31.20;6.38;;;4.30;99.90;;;;;;5044614;28;20263;-68
2022/01/31 01:52:19;;;;;;;23.40;4.85;;;4.20;99.90;;;;;;5039825;28;20197;-69
2022/01/31 01:54:49;;;;;;;31.42;6.13;;;4.20;99.90;;;;;;5039852;28;20204;-68
2022/01/31 01:57:17;;;;;;;23.08;5.22;;;4.20;99.90;;;;;;5040495;28;20222;-68
2022/01/31 01:59:45;;;;;;;31.27;6.30;;;4.20;99.90;;;;;;5039756;28;20814;-68
2022/01/31 02:02:13;;;;;;;29.67;6.25;;;4.10;99.90;;;;;;5044674;28;20292;-71
2022/01/31 02:04:43;;;;;;;38.55;5.68;;;4.20;99.90;;;;;;5069466;28;20261;-70
2022/01/31 02:07:12;;;;;;;30.52;6.13;;;4.30;99.90;;;;;;5048866;28;20232;-68
2022/01/31 02:09:44;;;;;;;22.40;5.35;;;4.30;99.90;;;;;;5039926;28;20194;-68
2022/01/31 02:12:13;;;;;;;22.38;5.43;;;4.30;99.90;;;;;;5038925;28;20210;-69
2022/01/31 02:14:41;;;;;;;15.63;4.82;;;4.40;99.90;;;;;;5039353;28;20206;-69
2022/01/31 02:17:08;;;;;;;22.50;5.65;;;4.40;99.90;;;;;;5038717;28;20739;-68
2022/01/31 02:19:37;;;;;;;22.25;6.13;;;4.50;99.90;;;;;;5038946;28;20197;-69
2022/01/31 02:22:06;;;;;;;18.10;4.63;;;4.50;99.90;;;;;;5038845;28;20743;-69
2022/01/31 02:24:34;;;;;;;21.80;4.57;;;4.60;99.90;;;;;;5041537;28;20198;-68
2022/01/31 02:27:04;;;;;;;17.17;5.88;;;4.60;99.90;;;;;;5042510;28;20217;-69
2022/01/31 02:29:32;;;;;;;23.95;5.80;;;4.70;99.90;;;;;;5040468;28;20219;-67
2022/01/31 02:32:00;;;;;;;21.92;6.10;;;4.70;99.90;;;;;;5042992;28;20201;-68
2022/01/31 02:34:28;;;;;;;32.47;5.53;;;4.70;99.90;;;;;;5044262;28;20241;-66
2022/01/31 02:36:55;;;;;;;20.92;5.13;;;4.80;99.90;;;;;;5043718;28;20229;-68
2022/01/31 02:39:24;;;;;;;17.80;4.57;;;4.80;99.90;;;;;;5044560;28;20208;-67
2022/01/31 02:41:52;;;;;;;22.58;5.32;;;4.80;99.90;;;;;;5044118;28;20813;-68
2022/01/31 02:44:20;;;;;;;21.42;6.47;;;4.70;99.90;;;;;;5043175;28;20227;-68
2022/01/31 02:46:51;;;;;;;14.35;5.55;;;4.70;99.90;;;;;;5042413;28;20208;-68
2022/01/31 02:49:24;;;;;;;24.60;5.40;;;4.80;99.90;;;;;;5043235;28;20202;-68
2022/01/31 02:51:54;;;;;;;23.90;5.63;;;4.80;99.90;;;;;;5042160;28;20201;-68
2022/01/31 02:54:21;;;;;;;20.90;5.30;;;4.80;99.90;;;;;;5042637;28;20304;-68
2022/01/31 02:56:51;;;;;;;18.75;4.93;;;4.90;99.90;;;;;;5042398;28;20222;-68
2022/01/31 02:59:19;;;;;;;21.52;7.95;;;4.80;99.90;;;;;;5042507;28;20197;-68
2022/01/31 03:01:47;;;;;;;16.70;5.25;;;4.60;99.90;;;;;;5042241;28;20399;-69
2022/01/31 03:04:15;;;;;;;19.77;5.00;;;4.50;99.90;;;;;;5042083;28;20237;-70
2022/01/31 03:06:49;;;;;;;23.90;5.63;;;4.50;99.90;;;;;;5042432;28;20213;-69
2022/01/31 03:09:18;;;;;;;21.58;4.55;;;4.60;99.90;;;;;;5042108;28;20223;-70
2022/01/31 03:11:46;;;;;;;31.80;4.72;;;4.50;99.90;;;;;;5042131;28;20209;-69
2022/01/31 03:14:16;;;;;;;21.65;4.15;;;4.40;99.90;;;;;;5042288;28;20834;-70
2022/01/31 03:16:45;;;;;;;20.45;4.93;;;4.40;99.90;;;;;;5042250;28;20198;-68
2022/01/31 03:19:13;;;;;;;24.15;7.20;;;4.40;99.90;;;;;;5041891;28;20233;-67
2022/01/31 03:21:41;;;;;;;19.15;5.40;;;4.30;99.90;;;;;;5041822;28;20813;-68
2022/01/31 03:24:10;;;;;;;19.98;4.40;;;4.30;99.90;;;;;;5043155;28;20202;-67
2022/01/31 03:26:39;;;;;;;18.55;4.45;;;4.40;99.90;;;;;;5042016;28;20208;-67
2022/01/31 03:29:06;;;;;;;32.05;5.00;;;4.30;99.90;;;;;;5041615;28;20221;-68
2022/01/31 03:31:37;;;;;;;17.60;4.15;;;4.30;99.90;;;;;;5042068;28;20263;-68
2022/01/31 03:34:05;;;;;;;18.63;5.75;;;4.30;99.90;;;;;;5041849;28;20206;-68
2022/01/31 03:36:33;;;;;;;19.05;5.65;;;4.30;99.90;;;;;;5041912;28;20208;-68
2022/01/31 03:39:00;;;;;;;16.48;6.25;;;4.30;99.90;;;;;;5041476;28;20201;-68
2022/01/31 03:41:28;;;;;;;24.38;4.68;;;4.20;99.90;;;;;;5040944;28;20210;-68
2022/01/31 03:43:56;;;;;;;27.08;6.22;;;4.30;99.90;;;;;;5042282;28;20205;-68
2022/01/31 03:46:24;;;;;;;17.35;5.20;;;4.30;99.90;;;;;;5041471;28;20881;-68
2022/01/31 03:48:53;;;;;;;15.07;5.55;;;4.30;99.90;;;;;;5044166;28;20234;-68
2022/01/31 03:51:21;;;;;;;19.25;5.32;;;4.30;99.90;;;;;;5041285;28;20202;-68
2022/01/31 03:53:49;;;;;;;22.30;6.35;;;4.30;99.90;;;;;;5042248;28;20198;-68
2022/01/31 03:56:17;;;;;;;22.75;5.72;;;4.40;99.90;;;;;;5042231;28;20194;-68
2022/01/31 03:58:44;;;;;;;20.30;5.72;;;4.40;99.90;;;;;;5040719;28;20868;-68
2022/01/31 04:01:12;;;;;;;16.25;3.95;;;4.40;99.90;;;;;;5040832;28;20208;-68
2022/01/31 04:03:40;;;;;;;20.33;5.63;;;4.40;99.90;;;;;;5040659;28;20286;-67
2022/01/31 04:06:10;;;;;;;12.65;5.25;;;4.40;99.90;;;;;;5041632;28;20197;-68
2022/01/31 04:08:37;;;;;;;16.75;6.80;;;4.40;99.90;;;;;;5040701;28;20225;-68
2022/01/31 04:11:05;;;;;;;19.60;4.80;;;4.40;99.90;;;;;;5040984;28;20202;-68
2022/01/31 04:13:33;;;;;;;18.95;6.82;;;4.40;99.90;;;;;;5040696;28;20209;-68
2022/01/31 04:16:01;;;;;;;33.78;5.85;;;4.40;99.90;;;;;;5040945;28;20202;-68
2022/01/31 04:18:29;;;;;;;24.77;5.65;;;4.30;99.90;;;;;;5040762;28;20228;-68
2022/01/31 04:20:57;;;;;;;19.38;4.35;;;4.30;99.90;;;;;;5041089;28;20810;-68
2022/01/31 04:23:28;;;;;;;16.70;5.05;;;4.30;99.90;;;;;;5041370;28;20883;-67
2022/01/31 04:26:06;;;;;;;12.82;3.85;;;4.30;99.90;;;;;;5041954;28;20198;-68
2022/01/31 04:28:41;;;;;;;19.48;5.25;;;4.30;99.90;;;;;;5060782;28;20224;-67
2022/01/31 04:31:23;;;;;;;15.55;4.60;;;4.30;99.90;;;;;;5055523;28;20293;-67
2022/01/31 04:33:53;;;;;;;11.20;4.28;;;4.30;99.90;;;;;;5041857;28;20202;-68
2022/01/31 04:36:20;;;;;;;7.35;3.50;;;4.30;99.90;;;;;;5041821;28;20198;-67
2022/01/31 04:38:50;;;;;;;13.38;4.03;;;4.30;99.90;;;;;;5040923;28;20249;-67
2022/01/31 04:41:18;;;;;;;18.42;4.32;;;4.20;99.90;;;;;;5040895;28;20220;-67
2022/01/31 04:43:48;;;;;;;24.25;5.80;;;4.20;99.90;;;;;;5040751;28;20269;-68
2022/01/31 04:46:16;;;;;;;20.50;5.32;;;4.20;99.90;;;;;;5041099;28;20205;-68
2022/01/31 04:48:44;;;;;;;16.90;4.25;;;4.20;99.90;;;;;;5041246;28;20244;-69
2022/01/31 04:51:12;;;;;;;20.67;5.90;;;4.20;99.90;;;;;;5041036;28;20214;-68
2022/01/31 04:53:40;;;;;;;14.57;4.45;;;4.10;99.90;;;;;;5040435;28;20213;-68
2022/01/31 04:56:10;;;;;;;19.50;5.25;;;4.10;99.90;;;;;;5041548;28;20233;-69
2022/01/31 04:58:40;;;;;;;15.10;4.85;;;4.10;99.90;;;;;;5041154;28;20221;-68
2022/01/31 05:01:08;;;;;;;13.10;6.75;;;4.10;99.90;;;;;;5040691;28;20197;-70
2022/01/31 05:03:37;;;;;;;12.93;4.85;;;4.10;99.90;;;;;;5041219;28;20296;-68
2022/01/31 05:06:05;;;;;;;20.13;4.97;;;4.10;99.90;;;;;;5040658;28;20209;-69
2022/01/31 05:08:35;;;;;;;22.17;5.93;;;4.10;99.90;;;;;;5040159;28;20819;-69
2022/01/31 05:11:07;;;;;;;24.67;5.47;;;4.10;99.90;;;;;;5041512;28;20202;-68
2022/01/31 05:13:37;;;;;;;22.92;5.15;;;4.10;99.90;;;;;;5041425;28;20201;-70
2022/01/31 05:16:05;;;;;;;20.48;4.30;;;4.10;99.90;;;;;;5041570;28;20201;-69
2022/01/31 05:18:33;;;;;;;15.07;4.63;;;4.10;99.90;;;;;;5040997;28;20802;-68
2022/01/31 05:21:01;;;;;;;16.48;5.35;;;4.00;99.90;;;;;;5040431;28;20205;-69
2022/01/31 05:23:29;;;;;;;14.05;4.60;;;4.00;99.90;;;;;;5040077;28;20209;-69
2022/01/31 05:25:57;;;;;;;30.42;5.50;;;3.90;99.90;;;;;;5039374;28;20225;-69
2022/01/31 05:28:26;;;;;;;27.42;5.63;;;3.90;99.90;;;;;;5039198;28;20228;-69
2022/01/31 05:30:55;;;;;;;16.35;5.55;;;3.90;99.90;;;;;;5039673;28;20290;-69
2022/01/31 05:33:23;;;;;;;16.15;5.53;;;3.90;99.90;;;;;;5039249;28;20224;-69
2022/01/31 05:35:52;;;;;;;16.95;4.80;;;4.00;99.90;;;;;;5039629;28;20212;-70
2022/01/31 05:38:20;;;;;;;17.42;4.80;;;4.00;99.90;;;;;;5040459;28;20249;-70
2022/01/31 05:40:48;;;;;;;20.98;6.07;;;4.00;99.90;;;;;;5039479;28;20206;-70
2022/01/31 05:43:16;;;;;;;18.20;5.38;;;4.10;99.90;;;;;;5038950;28;20210;-70
2022/01/31 05:45:44;;;;;;;25.58;5.18;;;4.10;99.90;;;;;;5038890;28;20284;-70
2022/01/31 05:48:13;;;;;;;26.65;6.40;;;4.00;99.90;;;;;;5038831;28;20235;-70
2022/01/31 05:50:41;;;;;;;17.50;4.63;;;4.00;99.90;;;;;;5039041;28;20864;-69
2022/01/31 05:53:09;;;;;;;38.00;5.80;;;3.90;99.90;;;;;;5039085;28;20202;-67
2022/01/31 05:55:37;;;;;;;26.92;6.63;;;3.90;99.90;;;;;;5039061;28;20200;-66
2022/01/31 05:58:04;;;;;;;18.67;6.10;;;4.00;99.90;;;;;;5039126;28;20724;-66
2022/01/31 06:00:32;;;;;;;28.27;6.75;;;3.90;99.90;;;;;;5039020;28;20251;-68
2022/01/31 06:03:00;;;;;;;15.43;5.22;;;4.00;99.90;;;;;;5039078;28;20206;-69
2022/01/31 06:05:30;;;;;;;17.35;5.97;;;4.00;99.90;;;;;;5038184;28;20917;-68
2022/01/31 06:07:57;;;;;;;22.27;5.57;;;4.00;99.90;;;;;;5041027;28;20226;-70
2022/01/31 06:10:25;;;;;;;25.90;5.93;;;4.00;99.90;;;;;;5041903;28;20415;-69
2022/01/31 06:12:54;;;;;;;18.13;6.25;;;4.00;99.90;;;;;;5040450;28;20319;-67
2022/01/31 06:15:22;;;;;;;26.92;5.40;;;4.00;99.90;;;;;;5039397;28;20212;-67
2022/01/31 06:17:50;;;;;;;19.55;6.03;;;4.00;99.90;;;;;;5040733;28;20221;-66
2022/01/31 06:20:18;;;;;;;16.65;6.07;;;4.00;99.90;;;;;;5039688;28;20202;-68
2022/01/31 06:22:51;;;;;;;13.40;4.45;;;4.00;99.90;;;;;;5037938;28;20197;-66
2022/01/31 06:25:20;;;;;;;13.68;5.40;;;3.90;99.90;;;;;;5038152;28;20236;-66
2022/01/31 06:27:48;;;;;;;15.95;5.97;;;3.90;99.90;;;;;;5038508;28;20228;-67
2022/01/31 06:30:16;;;;;;;29.00;6.18;;;3.90;99.90;;;;;;5038208;28;20217;-66
2022/01/31 06:32:45;;;;;;;20.10;6.43;;;3.90;99.90;;;;;;5034662;28;20214;-66
2022/01/31 06:35:13;;;;;;;22.85;6.10;;;3.90;99.90;;;;;;5038041;28;20276;-68
2022/01/31 06:37:41;;;;;;;22.88;4.97;;;3.90;99.90;;;;;;5038227;28;20222;-68
2022/01/31 06:40:11;;;;;;;21.63;5.68;;;3.80;99.90;;;;;;5038313;28;20200;-68
2022/01/31 06:42:39;;;;;;;17.65;5.32;;;3.80;99.90;;;;;;5038601;28;20202;-68
2022/01/31 06:45:07;;;;;;;24.33;5.25;;;3.70;99.90;;;;;;5038987;28;20212;-68
2022/01/31 06:47:35;;;;;;;16.83;5.35;;;3.70;99.90;;;;;;5039113;28;20230;-68
2022/01/31 06:50:07;;;;;;;23.15;6.95;;;3.80;99.90;;;;;;5038779;28;20218;-69
2022/01/31 06:52:36;;;;;;;25.80;7.93;;;3.80;99.90;;;;;;5056051;28;20220;-68
2022/01/31 06:55:07;;;;;;;21.77;5.55;;;3.80;99.90;;;;;;5063534;28;20201;-69
2022/01/31 06:57:36;;;;;;;31.48;6.90;;;3.80;99.90;;;;;;5038476;28;20287;-69
2022/01/31 07:00:08;;;;;;;25.15;6.68;;;3.70;99.90;;;;;;5038709;28;20233;-69
2022/01/31 07:02:36;;;;;;;20.55;6.35;;;3.80;99.90;;;;;;5038193;28;20205;-69
2022/01/31 07:05:05;;;;;;;28.63;6.47;;;3.80;99.90;;;;;;5038228;28;20793;-68
2022/01/31 07:07:33;;;;;;;18.58;4.93;;;3.80;99.90;;;;;;5037607;28;20221;-69
2022/01/31 07:10:02;;;;;;;15.80;5.68;;;3.90;99.90;;;;;;5037974;28;20280;-69
2022/01/31 07:12:32;;;;;;;21.75;6.10;;;3.90;99.90;;;;;;5038351;28;20801;-69
2022/01/31 07:15:03;;;;;;;12.38;4.80;;;4.00;99.90;;;;;;5038350;28;20840;-69
2022/01/31 07:17:31;;;;;;;20.13;5.50;;;4.00;99.90;;;;;;5042409;28;20233;-68
2022/01/31 07:19:59;;;;;;;15.98;5.13;;;4.00;99.90;;;;;;5043279;28;20253;-68
2022/01/31 07:22:33;;;;;;;24.52;7.10;;;4.00;99.90;;;;;;5042724;28;20201;-67
2022/01/31 07:25:04;;;;;;;20.17;5.43;;;4.00;99.90;;;;;;5041674;28;20203;-68
2022/01/31 07:27:32;;;;;;;27.38;5.75;;;4.00;99.90;;;;;;5041515;28;20249;-67
2022/01/31 07:30:02;;;;;;;18.65;6.18;;;3.90;99.90;;;;;;5041756;28;20229;-69
2022/01/31 07:32:30;;;;;;;17.30;6.43;;;3.80;99.90;;;;;;5041161;28;20297;-68
2022/01/31 07:34:58;;;;;;;18.58;5.45;;;3.80;99.90;;;;;;5041369;28;20202;-68
2022/01/31 07:37:26;;;;;;;25.08;5.97;;;3.80;99.90;;;;;;5041199;28;20222;-68
2022/01/31 07:39:54;;;;;;;22.95;5.68;;;3.80;99.90;;;;;;5041751;28;20197;-69
2022/01/31 07:42:22;;;;;;;26.38;8.25;;;3.80;99.90;;;;;;5041744;28;20216;-69
2022/01/31 07:44:53;;;;;;;19.80;6.68;;;3.80;99.90;;;;;;5041743;28;20270;-69
2022/01/31 07:47:22;;;;;;;16.30;5.85;;;3.70;99.90;;;;;;5041547;28;20264;-66
2022/01/31 07:49:51;;;;;;;21.50;6.63;;;3.70;99.90;;;;;;5042572;28;20205;-67
2022/01/31 07:52:19;;;;;;;13.82;6.50;;;3.70;99.90;;;;;;5042083;28;20292;-69
2022/01/31 07:54:47;;;;;;;23.73;7.97;;;3.70;99.90;;;;;;5042253;28;20202;-69
2022/01/31 07:57:16;;;;;;;17.80;6.30;;;3.70;99.90;;;;;;5042342;28;20257;-68
2022/01/31 07:59:59;;;;;;;21.15;7.40;;;3.60;99.90;;;;;;5042447;28;20730;-68
2022/01/31 08:02:28;;;;;;;16.83;6.82;;;3.60;99.90;;;;;;5041543;28;20198;-67
2022/01/31 08:04:58;;;;;;;22.48;5.40;;;3.70;99.90;;;;;;5041557;28;20869;-67
2022/01/31 08:07:26;;;;;;;23.65;5.88;;;3.60;99.90;;;;;;5041274;28;20217;-67
2022/01/31 08:09:54;;;;;;;16.60;5.78;;;3.70;99.90;;;;;;5041402;28;20206;-67
2022/01/31 08:12:23;;;;;;;34.85;7.95;;;3.70;99.90;;;;;;5041855;28;20811;-67
2022/01/31 08:14:51;;;;;;;33.25;8.48;;;3.70;99.90;;;;;;5040949;28;20201;-67
2022/01/31 08:17:21;;;;;;;20.23;5.75;;;3.70;99.90;;;;;;5040493;28;20312;-67
2022/01/31 08:19:50;;;;;;;22.55;7.97;;;3.70;99.90;;;;;;5040437;28;20360;-66
2022/01/31 08:22:18;;;;;;;19.88;7.53;;;3.70;99.90;;;;;;5040765;28;20745;-66
2022/01/31 08:24:46;;;;;;;17.33;6.22;;;3.70;99.90;;;;;;5039858;28;20843;-66
2022/01/31 08:27:14;;;;;;;22.98;6.57;;;3.70;99.90;;;;;;5040198;28;20217;-66
2022/01/31 08:29:41;;;;;;;26.02;7.50;;;3.70;99.90;;;;;;5040575;28;20812;-66
2022/01/31 08:32:17;;;;;;;15.60;5.80;;;3.70;99.90;;;;;;5040650;28;20575;-65
2022/01/31 08:37:38;;;;;;;19.17;7.47;;;3.80;99.90;;;;;;5040020;28;20286;-71
2022/01/31 08:40:07;;;;;;;14.48;5.72;;;3.90;99.90;;;;;;5038301;28;20213;-73
2022/01/31 08:42:35;;;;;;;21.40;7.13;;;3.80;99.90;;;;;;5039145;28;20857;-71
2022/01/31 08:45:05;;;;;;;18.90;5.70;;;3.90;99.90;;;;;;5038699;28;20201;-74
2022/01/31 08:47:34;;;;;;;25.45;6.55;;;3.90;99.90;;;;;;5043379;28;20324;-73
2022/01/31 08:50:02;;;;;;;21.80;7.00;;;3.90;99.90;;;;;;5044953;28;20205;-75
2022/01/31 08:52:30;;;;;;;21.33;6.55;;;3.90;99.90;;;;;;5044512;28;20205;-75
2022/01/31 08:54:59;;;;;;;22.77;5.53;;;3.90;99.90;;;;;;5045015;28;20198;-73
2022/01/31 08:57:27;;;;;;;28.33;7.68;;;3.90;99.90;;;;;;5043898;28;20225;-73
2022/01/31 08:59:57;;;;;;;34.72;7.97;;;4.00;99.90;;;;;;5043866;28;20784;-74
2022/01/31 09:02:37;;;;;;;24.73;8.13;;;4.10;99.90;;;;;;5044690;28;20288;-71
2022/01/31 09:05:05;;;;;;;15.75;7.30;;;4.10;99.90;;;;;;5044622;28;20504;-73
2022/01/31 09:07:33;;;;;;;25.05;7.72;;;4.10;99.90;;;;;;5038837;28;20602;-71
2022/01/31 09:10:03;;;;;;;19.98;6.90;;;4.10;99.90;;;;;;5040872;28;20198;-70
2022/01/31 09:12:35;;;;;;;14.48;6.88;;;4.10;99.90;;;;;;5040830;28;20221;-71
2022/01/31 09:15:05;;;;;;;18.58;6.35;;;4.20;99.90;;;;;;5044669;28;20281;-72
2022/01/31 09:17:34;;;;;;;22.80;7.07;;;4.20;99.90;;;;;;5057184;28;20285;-72
2022/01/31 09:20:02;;;;;;;21.50;6.53;;;4.20;99.90;;;;;;5049642;28;20224;-74
2022/01/31 09:22:30;;;;;;;18.08;6.45;;;4.20;99.90;;;;;;5042892;28;20279;-72
2022/01/31 09:24:58;;;;;;;19.90;6.90;;;4.20;99.90;;;;;;5042402;28;20206;-71
2022/01/31 09:27:27;;;;;;;30.10;6.85;;;4.20;99.90;;;;;;5042172;28;20249;-69
2022/01/31 09:29:56;;;;;;;19.02;6.15;;;4.30;99.90;;;;;;5041964;28;20205;-73
2022/01/31 09:32:24;;;;;;;30.40;6.95;;;4.20;99.90;;;;;;5041622;28;20312;-70
2022/01/31 09:34:53;;;;;;;31.17;6.88;;;4.30;99.90;;;;;;5041219;28;20260;-71
2022/01/31 09:37:21;;;;;;;16.42;5.75;;;4.30;99.90;;;;;;5040983;28;20224;-70
2022/01/31 09:39:49;;;;;;;17.48;6.10;;;4.20;99.90;;;;;;5040665;28;20211;-68
2022/01/31 09:42:27;;;;;;;22.88;6.43;;;4.20;99.90;;;;;;5042581;28;20322;-73
2022/01/31 09:45:15;;;;;;;24.33;6.70;;;4.20;99.90;;;;;;5040179;28;20259;-70
2022/01/31 09:50:29;;;;;;;18.83;7.05;;;4.30;99.90;;;;;;5039935;28;20933;-71
2022/01/31 09:52:57;;;;;;;20.70;6.13;;;4.30;99.90;;;;;;5039603;28;20221;-73
2022/01/31 09:55:26;;;;;;;22.13;6.03;;;4.40;99.90;;;;;;5039366;28;20672;-69
2022/01/31 09:57:54;;;;;;;17.33;7.80;;;4.40;99.90;;;;;;5038680;28;20856;-71
2022/01/31 10:00:33;;;;;;;16.77;7.50;;;4.50;99.90;;;;;;5038569;28;20212;-73
2022/01/31 10:03:05;;;;;;;15.93;6.60;;;4.50;99.90;;;;;;5039513;28;20288;-74
2022/01/31 10:05:34;;;;;;;23.02;7.82;;;4.60;99.90;;;;;;5038814;28;20278;-73
2022/01/31 10:08:11;;;;;;;24.50;6.68;;;4.70;99.90;;;;;;5039448;28;20229;-74
2022/01/31 10:10:42;;;;;;;18.80;6.25;;;4.70;99.90;;;;;;5040097;28;20213;-73
2022/01/31 10:16:26;;;;;;;17.00;6.80;;;4.90;99.90;;;;;;5039035;28;20287;-71
2022/01/31 10:19:05;;;;;;;15.32;6.85;;;5.00;99.90;;;;;;5039658;28;20228;-73
2022/01/31 10:21:33;;;;;;;13.85;6.28;;;5.00;99.90;;;;;;5040004;28;20202;-72
2022/01/31 10:24:01;;;;;;;22.33;8.85;;;5.00;99.90;;;;;;5037498;28;20236;-73
2022/01/31 10:26:31;;;;;;;14.73;7.40;;;5.00;99.90;;;;;;5042207;28;20206;-68
2022/01/31 10:29:10;;;;;;;11.50;6.25;;;5.00;99.90;;;;;;5046502;28;20221;-68
2022/01/31 10:31:52;;;;;;;11.65;6.45;;;5.10;99.90;;;;;;5052021;28;20221;-69
2022/01/31 10:34:23;;;;;;;12.40;5.68;;;5.10;99.90;;;;;;5056174;28;20300;-69
2022/01/31 10:36:51;;;;;;;11.10;6.35;;;5.20;99.90;;;;;;5061058;28;20208;-73
2022/01/31 10:45:29;;;;;;;15.52;6.75;;;5.30;99.90;;;;;;5039757;28;20288;-74
2022/01/31 10:54:25;;;;;;;8.60;5.63;;;5.50;99.90;;;;;;5043206;28;20288;-69
2022/01/31 10:56:55;;;;;;;7.82;5.45;;;5.60;99.90;;;;;;5043434;28;20687;-69
2022/01/31 10:59:26;;;;;;;16.08;6.25;;;5.60;99.90;;;;;;5043687;28;20204;-73
2022/01/31 11:01:56;;;;;;;19.20;6.22;;;5.50;99.90;;;;;;5043675;28;20202;-72
2022/01/31 11:04:35;;;;;;;8.25;4.90;;;5.50;99.90;;;;;;5042680;28;20202;-72
2022/01/31 11:07:07;;;;;;;14.30;5.68;;;5.50;99.90;;;;;;5041798;28;20229;-72
2022/01/31 11:09:36;;;;;;;11.98;5.93;;;5.50;99.90;;;;;;5042671;28;20808;-69
2022/01/31 11:12:05;;;;;;;8.98;5.60;;;5.50;99.90;;;;;;5042549;28;20218;-71
2022/01/31 11:14:34;;;;;;;7.53;5.00;;;5.50;99.90;;;;;;5042445;28;20210;-70
2022/01/31 11:17:08;;;;;;;9.80;5.38;;;5.50;99.90;;;;;;5043104;28;20217;-69
2022/01/31 11:19:39;;;;;;;11.98;6.28;;;5.40;99.90;;;;;;5046103;28;20921;-69
2022/01/31 11:22:12;;;;;;;8.80;4.95;;;5.40;99.90;;;;;;5042008;28;20354;-69
2022/01/31 11:25:04;;;;;;;9.05;5.70;;;5.30;99.90;;;;;;5041618;28;20657;-69
2022/01/31 11:27:34;;;;;;;10.10;5.60;;;5.40;99.90;;;;;;5041737;28;20231;-69
2022/01/31 11:30:06;;;;;;;9.32;4.88;;;5.40;99.90;;;;;;5041098;28;20201;-69
2022/01/31 11:32:34;;;;;;;8.32;4.88;;;5.30;99.90;;;;;;5041507;28;20240;-68
2022/01/31 11:35:04;;;;;;;7.38;3.70;;;5.20;99.90;;;;;;5045243;28;20334;-69
2022/01/31 11:37:32;;;;;;;7.68;4.82;;;5.10;99.90;;;;;;5042154;28;20221;-68
2022/01/31 11:40:06;;;;;;;12.02;5.28;;;5.10;99.90;;;;;;5043263;28;20202;-68
2022/01/31 11:42:35;;;;;;;5.97;4.07;;;5.10;99.90;;;;;;5042613;28;20206;-69
2022/01/31 11:45:10;;;;;;;7.07;4.13;;;5.10;99.90;;;;;;5062836;28;20213;-69
2022/01/31 11:47:39;;;;;;;7.18;5.57;;;5.20;99.90;;;;;;5060863;28;20230;-68
2022/01/31 11:50:12;;;;;;;9.38;5.03;;;5.20;99.90;;;;;;5043510;28;20789;-69
2022/01/31 11:52:46;;;;;;;8.48;4.43;;;5.30;99.90;;;;;;5042372;28;20289;-68
2022/01/31 11:55:16;;;;;;;5.00;4.28;;;5.30;99.90;;;;;;5042175;28;20197;-70
2022/01/31 11:57:47;;;;;;;6.78;4.70;;;5.40;99.90;;;;;;5042062;28;20226;-68
2022/01/31 12:00:18;;;;;;;5.22;3.50;;;5.40;99.90;;;;;;5042415;28;20340;-69
2022/01/31 12:02:47;;;;;;;5.18;4.25;;;5.20;99.90;;;;;;5040509;28;20285;-69
2022/01/31 12:05:22;;;;;;;8.27;4.90;;;5.20;99.90;;;;;;5043504;28;20210;-69
2022/01/31 12:08:02;;;;;;;6.32;5.13;;;5.20;99.90;;;;;;5041288;28;20264;-71
2022/01/31 12:10:34;;;;;;;7.70;5.53;;;5.30;99.90;;;;;;5041631;28;20211;-71
2022/01/31 12:13:14;;;;;;;5.32;4.72;;;5.30;99.90;;;;;;5041408;28;20244;-73
2022/01/31 12:16:11;;;;;;;8.02;4.55;;;5.30;99.90;;;;;;5041823;28;20340;-73
2022/01/31 12:21:59;;;;;;;7.20;5.10;;;5.40;99.90;;;;;;5039214;28;20211;-71
2022/01/31 12:24:43;;;;;;;9.18;5.10;;;5.40;99.90;;;;;;5040887;28;20209;-69
2022/01/31 12:27:13;;;;;;;8.10;5.07;;;5.40;99.90;;;;;;5040737;28;20714;-69
2022/01/31 12:29:44;;;;;;;8.10;6.78;;;5.40;99.90;;;;;;5040660;28;20201;-69
2022/01/31 12:32:20;;;;;;;7.63;4.53;;;5.40;99.90;;;;;;5040960;28;20202;-71
2022/01/31 12:34:51;;;;;;;6.43;4.32;;;5.40;99.90;;;;;;5040987;28;20347;-69
2022/01/31 12:37:28;;;;;;;6.72;5.20;;;5.50;99.90;;;;;;5041376;28;20228;-73
2022/01/31 12:40:16;;;;;;;6.38;5.72;;;5.50;99.90;;;;;;5041452;28;20190;-70
2022/01/31 12:46:06;;;;;;;4.88;4.43;;;5.60;99.90;;;;;;5041200;28;20403;-71
2022/01/31 12:48:35;;;;;;;7.50;4.88;;;5.70;99.90;;;;;;5040771;28;20767;-74
2022/01/31 12:51:06;;;;;;;6.60;5.10;;;5.60;99.90;;;;;;5041394;28;20197;-73
2022/01/31 12:53:43;;;;;;;7.40;5.15;;;5.60;99.90;;;;;;5040608;28;20222;-73
2022/01/31 12:56:14;;;;;;;6.50;5.38;;;5.50;99.90;;;;;;5040672;28;20201;-67
2022/01/31 12:58:46;;;;;;;13.75;6.72;;;5.50;99.90;;;;;;5041775;28;20217;-68
2022/01/31 13:01:15;;;;;;;6.20;5.00;;;5.60;99.90;;;;;;5042178;28;20194;-69
2022/01/31 13:03:47;;;;;;;7.30;5.40;;;5.60;99.90;;;;;;5040721;28;20244;-69
2022/01/31 13:06:44;;;;;;;9.32;5.13;;;5.60;99.90;;;;;;5040623;28;20210;-68
2022/01/31 13:09:23;;;;;;;12.48;5.88;;;5.60;99.90;;;;;;5039958;28;20274;-68
2022/01/31 13:11:55;;;;;;;8.32;6.10;;;5.60;99.90;;;;;;5040901;28;20197;-74
2022/01/31 13:14:24;;;;;;;9.85;6.43;;;5.70;99.90;;;;;;5040707;28;20216;-73
2022/01/31 13:17:13;;;;;;;12.82;6.28;;;5.70;99.90;;;;;;5038856;28;20224;-71
2022/01/31 13:19:43;;;;;;;7.32;4.90;;;5.70;99.90;;;;;;5041907;28;20194;-70
2022/01/31 13:22:14;;;;;;;10.77;5.90;;;5.70;99.90;;;;;;5039443;28;20197;-74
2022/01/31 13:24:47;;;;;;;8.45;6.45;;;5.70;99.90;;;;;;5037833;28;20197;-71
2022/01/31 13:27:16;;;;;;;9.63;5.15;;;5.70;99.90;;;;;;5039011;28;20216;-67
2022/01/31 13:30:07;;;;;;;8.93;5.75;;;5.70;99.90;;;;;;5039081;28;20205;-66